Terminal Aerodrome Forecast
Issued by NWS Sterling, VA

Current Version | Previous Version | Graphics & Text | Print | Product List | Glossary On
Versions: 1 2 3 4 5 6 7 8 9 10 11 12 13 14 15 16 17
000
FTUS41 KLWX 032340
TAFMRB
TAF
KMRB 032340Z 0400/0424 VRB05KT P6SM BKN100
     FM040400 00000KT 4SM BR BKN060
     FM040900 00000KT 2SM BR SCT060
     FM041300 VRB03KT P6SM BKN050
     FM042000 08007KT P6SM VCTS BKN050CB=

USA.gov is the U.S. government's official web portal to all federal, state and local government web resources and services.